No particular awareness of the weather is required.    There are no Weather-warnings


Meteo18 Weather Cam more information Meteo18 Weather Cam


Thunder radar more information blitzortung!


Rain radar more information rain snow radar


Visit our other weather sites:

Template documentation
and downloads

And another site



Weather Underground History page Text

Daily Summary for January 9, 2016 Units:  Metric    English   Both
« Previous Day
Next Day »
Daily Weekly Monthly Yearly Custom
  High: Low: Average:
Temperature: 11.6 °C 5.4 °C 8.1 °C
Dew Point: 8.6 °C 5.0 °C 6.8 °C
Humidity: 98 % 72 % 92 %
Wind Speed: 14.5 km/h 0.0 km/h 1.4 km/h
Wind Gust: 32.2 km/h - -
Wind:- - SW
Pressure: 1003.6 hPa 996.8 hPa -
Precipitation: 1.5 mm    
Historical Graphs
 
 
Tabular Data for January 9, 2016
Time Temperature Dew Point Pressure Wind Wind Speed Wind Gust Humidity Rainfall Rate (Hourly)
00:02 5.4 °C 5.0 °C 1003.3 hPa Calm     97 % 0.0 mm
00:07 5.4 °C 5.0 °C 1003.3 hPa Calm     97 % 0.0 mm
00:12 5.5 °C 5.1 °C 1003.3 hPa Calm     97 % 0.0 mm
00:17 5.6 °C 5.2 °C 1003.3 hPa Calm     97 % 0.0 mm
00:22 5.7 °C 5.3 °C 1003.3 hPa Calm     97 % 0.0 mm
00:27 5.7 °C 5.3 °C 1003.3 hPa Calm     97 % 0.0 mm
00:32 5.8 °C 5.4 °C 1003.3 hPa Calm     97 % 0.0 mm
00:37 5.8 °C 5.4 °C 1003.3 hPa Calm     97 % 0.0 mm
00:42 5.9 °C 5.6 °C 1003.3 hPa Calm     98 % 0.0 mm
00:47 6.1 °C 5.8 °C 1002.9 hPa Calm     98 % 0.0 mm
00:52 6.2 °C 5.9 °C 1003.3 hPa Calm     98 % 0.0 mm
00:57 6.2 °C 5.8 °C 1003.6 hPa Calm     97 % 0.0 mm
01:02 6.2 °C 5.8 °C 1003.6 hPa Calm     97 % 0.0 mm
01:07 6.3 °C 5.9 °C 1003.6 hPa Calm   4.8 km/h 97 % 0.0 mm
01:12 6.3 °C 5.9 °C 1003.3 hPa Calm   4.8 km/h 97 % 0.0 mm
01:17 6.3 °C 5.9 °C 1003.3 hPa Calm   4.8 km/h 97 % 0.0 mm
01:22 6.3 °C 5.9 °C 1003.3 hPa Calm     97 % 0.0 mm
01:27 6.3 °C 5.9 °C 1003.3 hPa Calm     97 % 0.0 mm
01:32 6.3 °C 5.9 °C 1003.3 hPa Calm   1.6 km/h 97 % 0.0 mm
01:37 6.4 °C 6.0 °C 1003.3 hPa SW 1.6 km/h 4.8 km/h 97 % 0.0 mm
01:42 6.4 °C 6.0 °C 1003.3 hPa Calm   4.8 km/h 97 % 0.0 mm
01:47 6.4 °C 6.0 °C 1003.3 hPa Calm   4.8 km/h 97 % 0.0 mm
01:52 6.4 °C 6.0 °C 1003.3 hPa SW 1.6 km/h 3.2 km/h 97 % 0.0 mm
01:57 6.3 °C 5.9 °C 1002.9 hPa Calm   3.2 km/h 97 % 0.0 mm
02:02 6.4 °C 6.0 °C 1003.3 hPa Calm   3.2 km/h 97 % 0.0 mm
02:07 6.3 °C 5.9 °C 1003.3 hPa SW 1.6 km/h 4.8 km/h 97 % 0.0 mm
02:12 6.3 °C 5.9 °C 1003.3 hPa Calm   4.8 km/h 97 % 0.0 mm
02:17 6.3 °C 5.9 °C 1003.3 hPa Calm   4.8 km/h 97 % 0.0 mm
02:22 6.3 °C 5.9 °C 1003.3 hPa Calm   3.2 km/h 97 % 0.0 mm
02:27 6.3 °C 5.9 °C 1003.3 hPa Calm   3.2 km/h 97 % 0.0 mm
02:32 6.3 °C 5.9 °C 1003.3 hPa SW 1.6 km/h 3.2 km/h 97 % 0.0 mm
02:42 6.3 °C 5.9 °C 1003.6 hPa SW 1.6 km/h 3.2 km/h 97 % 0.0 mm
02:47 6.3 °C 5.9 °C 1003.3 hPa SW 3.2 km/h 4.8 km/h 97 % 0.0 mm
02:52 6.3 °C 5.9 °C 1003.3 hPa SW 1.6 km/h 4.8 km/h 97 % 0.0 mm
02:57 6.3 °C 5.9 °C 1003.3 hPa WSW 1.6 km/h 4.8 km/h 97 % 0.0 mm
03:02 6.3 °C 5.9 °C 1003.3 hPa SW 1.6 km/h 4.8 km/h 97 % 0.0 mm
03:07 6.3 °C 6.0 °C 1003.3 hPa SW 1.6 km/h 4.8 km/h 98 % 0.0 mm
03:12 6.3 °C 6.0 °C 1003.3 hPa SSW 1.6 km/h 4.8 km/h 98 % 0.0 mm
03:17 6.3 °C 6.0 °C 1003.3 hPa Calm   4.8 km/h 98 % 0.0 mm
03:22 6.3 °C 6.0 °C 1003.3 hPa Calm   4.8 km/h 98 % 0.0 mm
03:27 6.3 °C 6.0 °C 1003.3 hPa Calm   3.2 km/h 98 % 0.0 mm
03:32 6.4 °C 6.1 °C 1003.3 hPa Calm   3.2 km/h 98 % 0.0 mm
03:37 6.4 °C 6.1 °C 1003.3 hPa Calm   1.6 km/h 98 % 0.0 mm
03:42 6.4 °C 6.1 °C 1003.3 hPa Calm   1.6 km/h 98 % 0.0 mm
03:47 6.4 °C 6.1 °C 1003.3 hPa Calm   1.6 km/h 98 % 0.0 mm
03:52 6.4 °C 6.1 °C 1003.3 hPa Calm   3.2 km/h 98 % 0.0 mm
03:57 6.4 °C 6.1 °C 1003.3 hPa Calm   3.2 km/h 98 % 0.0 mm
04:02 6.4 °C 6.1 °C 1003.3 hPa Calm   3.2 km/h 98 % 0.0 mm
04:07 6.5 °C 6.2 °C 1002.9 hPa Calm   3.2 km/h 98 % 0.0 mm
04:12 6.5 °C 6.2 °C 1002.9 hPa Calm   1.6 km/h 98 % 0.0 mm
04:17 6.5 °C 6.2 °C 1002.9 hPa Calm   1.6 km/h 98 % 0.0 mm
04:22 6.5 °C 6.2 °C 1002.9 hPa Calm     98 % 0.0 mm
04:27 6.6 °C 6.3 °C 1002.9 hPa Calm     98 % 0.0 mm
04:32 6.6 °C 6.3 °C 1002.9 hPa Calm     98 % 0.0 mm
04:37 6.6 °C 6.3 °C 1002.9 hPa Calm     98 % 0.0 mm
04:42 6.6 °C 6.3 °C 1002.9 hPa Calm     98 % 0.0 mm
04:47 6.7 °C 6.4 °C 1002.9 hPa Calm     98 % 0.0 mm
04:52 6.7 °C 6.4 °C 1002.9 hPa Calm   1.6 km/h 98 % 0.0 mm
04:57 6.7 °C 6.4 °C 1002.9 hPa Calm   1.6 km/h 98 % 0.0 mm
05:02 6.8 °C 6.5 °C 1002.6 hPa Calm   1.6 km/h 98 % 0.0 mm
05:12 6.9 °C 6.6 °C 1002.6 hPa Calm   3.2 km/h 98 % 0.0 mm
05:17 6.9 °C 6.6 °C 1002.6 hPa Calm   1.6 km/h 98 % 0.0 mm
05:22 6.9 °C 6.6 °C 1002.6 hPa Calm   1.6 km/h 98 % 0.0 mm
05:27 6.9 °C 6.6 °C 1002.6 hPa Calm   3.2 km/h 98 % 0.0 mm
05:32 6.9 °C 6.6 °C 1002.6 hPa Calm   3.2 km/h 98 % 0.0 mm
05:37 6.9 °C 6.6 °C 1002.6 hPa Calm   1.6 km/h 98 % 0.0 mm
05:42 7.0 °C 6.7 °C 1002.6 hPa Calm   1.6 km/h 98 % 0.0 mm
05:47 7.0 °C 6.7 °C 1002.6 hPa Calm   1.6 km/h 98 % 0.0 mm
05:52 7.0 °C 6.7 °C 1002.6 hPa Calm   1.6 km/h 98 % 0.0 mm
05:57 6.9 °C 6.6 °C 1002.6 hPa Calm   1.6 km/h 98 % 0.0 mm
06:02 6.9 °C 6.6 °C 1002.3 hPa Calm   1.6 km/h 98 % 0.0 mm
06:07 6.9 °C 6.6 °C 1002.3 hPa Calm     98 % 0.0 mm
06:12 6.9 °C 6.6 °C 1002.3 hPa Calm     98 % 0.0 mm
06:17 7.0 °C 6.7 °C 1002.3 hPa Calm     98 % 0.0 mm
06:22 7.0 °C 6.7 °C 1002.3 hPa Calm     98 % 0.0 mm
06:27 7.0 °C 6.7 °C 1002.3 hPa Calm     98 % 0.0 mm
06:32 7.0 °C 6.7 °C 1002.3 hPa Calm   1.6 km/h 98 % 0.0 mm
06:37 7.1 °C 6.8 °C 1002.6 hPa Calm     98 % 0.0 mm
06:42 7.1 °C 6.8 °C 1002.3 hPa Calm     98 % 0.0 mm
06:52 7.1 °C 6.8 °C 1002.3 hPa Calm   1.6 km/h 98 % 0.0 mm
06:57 7.1 °C 6.8 °C 1002.3 hPa Calm   1.6 km/h 98 % 0.0 mm
07:02 7.2 °C 6.9 °C 1002.3 hPa Calm     98 % 0.0 mm
07:07 7.2 °C 6.9 °C 1002.3 hPa Calm   1.6 km/h 98 % 0.0 mm
07:12 7.2 °C 6.9 °C 1002.3 hPa Calm   1.6 km/h 98 % 0.0 mm
07:17 7.2 °C 6.9 °C 1002.3 hPa Calm   1.6 km/h 98 % 0.0 mm
07:22 7.2 °C 6.9 °C 1002.3 hPa Calm   1.6 km/h 98 % 0.0 mm
07:32 7.2 °C 6.9 °C 1001.9 hPa Calm   1.6 km/h 98 % 0.0 mm
07:37 7.2 °C 6.9 °C 1002.3 hPa Calm   1.6 km/h 98 % 0.0 mm
07:42 7.2 °C 6.9 °C 1002.3 hPa Calm   3.2 km/h 98 % 0.0 mm
07:47 7.2 °C 6.9 °C 1002.3 hPa Calm   3.2 km/h 98 % 0.0 mm
07:52 7.2 °C 6.9 °C 1002.3 hPa Calm   1.6 km/h 98 % 0.0 mm
07:57 7.2 °C 6.9 °C 1002.3 hPa Calm   1.6 km/h 98 % 0.0 mm
08:02 7.2 °C 6.9 °C 1002.3 hPa Calm   1.6 km/h 98 % 0.0 mm
08:07 7.2 °C 6.9 °C 1002.3 hPa Calm   1.6 km/h 98 % 0.0 mm
08:12 7.2 °C 6.9 °C 1002.3 hPa Calm   1.6 km/h 98 % 0.0 mm
08:17 7.2 °C 6.9 °C 1001.9 hPa Calm   1.6 km/h 98 % 0.0 mm
08:22 7.3 °C 7.0 °C 1002.3 hPa Calm   1.6 km/h 98 % 0.0 mm
08:27 7.3 °C 7.0 °C 1002.3 hPa Calm   1.6 km/h 98 % 0.0 mm
08:32 7.3 °C 7.0 °C 1002.3 hPa Calm   1.6 km/h 98 % 0.0 mm
08:37 7.3 °C 7.0 °C 1002.3 hPa Calm   1.6 km/h 98 % 0.0 mm
08:42 7.4 °C 7.1 °C 1002.3 hPa Calm   3.2 km/h 98 % 0.0 mm
08:47 7.4 °C 7.1 °C 1002.3 hPa SW 1.6 km/h 3.2 km/h 98 % 0.0 mm
08:52 7.5 °C 7.2 °C 1002.3 hPa SW 1.6 km/h 3.2 km/h 98 % 0.0 mm
08:57 7.6 °C 7.3 °C 1002.3 hPa SW 3.2 km/h 8.0 km/h 98 % 0.0 mm
09:02 7.7 °C 7.4 °C 1002.3 hPa SW 1.6 km/h 8.0 km/h 98 % 0.0 mm
09:07 7.7 °C 7.4 °C 1002.3 hPa Calm   6.4 km/h 98 % 0.0 mm
09:12 7.7 °C 7.4 °C 1002.3 hPa Calm   6.4 km/h 98 % 0.0 mm
09:17 7.7 °C 7.4 °C 1002.3 hPa Calm   6.4 km/h 98 % 0.0 mm
09:22 7.7 °C 7.4 °C 1002.3 hPa Calm   8.0 km/h 98 % 0.0 mm
09:27 7.6 °C 7.3 °C 1002.3 hPa Calm   8.0 km/h 98 % 0.0 mm
09:32 7.5 °C 7.2 °C 1002.3 hPa Calm   6.4 km/h 98 % 0.0 mm
09:37 7.6 °C 7.3 °C 1002.3 hPa Calm   3.2 km/h 98 % 0.0 mm
09:42 7.6 °C 7.3 °C 1002.3 hPa Calm   1.6 km/h 98 % 0.0 mm
09:47 7.7 °C 7.4 °C 1002.3 hPa SSW 1.6 km/h 1.6 km/h 98 % 0.0 mm
09:52 7.8 °C 7.5 °C 1002.3 hPa Calm   3.2 km/h 98 % 0.0 mm
09:57 7.9 °C 7.6 °C 1002.6 hPa Calm   3.2 km/h 98 % 0.0 mm
10:02 7.9 °C 7.6 °C 1002.6 hPa Calm   3.2 km/h 98 % 0.0 mm
10:07 8.1 °C 7.8 °C 1002.6 hPa Calm   1.6 km/h 98 % 0.0 mm
10:12 8.1 °C 7.8 °C 1002.6 hPa Calm   1.6 km/h 98 % 0.0 mm
10:17 8.1 °C 7.8 °C 1002.6 hPa Calm   1.6 km/h 98 % 0.0 mm
10:22 8.0 °C 7.6 °C 1002.6 hPa Calm   1.6 km/h 97 % 0.0 mm
10:27 7.9 °C 7.5 °C 1002.6 hPa Calm   1.6 km/h 97 % 0.0 mm
10:32 8.0 °C 7.6 °C 1002.6 hPa Calm   1.6 km/h 97 % 0.0 mm
10:37 8.2 °C 7.9 °C 1002.6 hPa Calm   1.6 km/h 98 % 0.0 mm
10:42 8.4 °C 8.1 °C 1002.6 hPa Calm   1.6 km/h 98 % 0.0 mm
10:47 8.4 °C 8.0 °C 1002.6 hPa Calm   3.2 km/h 97 % 0.0 mm
10:52 8.8 °C 8.5 °C 1002.6 hPa SW 4.8 km/h 4.8 km/h 98 % 0.0 mm
10:57 9.1 °C 8.6 °C 1002.9 hPa Calm   6.4 km/h 97 % 0.0 mm
11:02 9.1 °C 8.3 °C 1002.6 hPa SW 3.2 km/h 6.4 km/h 95 % 0.0 mm
11:07 9.1 °C 8.3 °C 1002.9 hPa WSW 3.2 km/h 11.3 km/h 95 % 0.0 mm
11:12 9.1 °C 8.2 °C 1002.9 hPa WSW 1.6 km/h 11.3 km/h 94 % 0.0 mm
11:17 9.1 °C 8.2 °C 1002.9 hPa SW 4.8 km/h 11.3 km/h 94 % 0.0 mm
11:22 9.2 °C 8.3 °C 1002.6 hPa SW 3.2 km/h 9.7 km/h 94 % 0.0 mm
11:27 9.3 °C 8.1 °C 1002.6 hPa SW 3.2 km/h 11.3 km/h 92 % 0.0 mm
11:32 9.5 °C 8.4 °C 1002.6 hPa WSW 1.6 km/h 11.3 km/h 93 % 0.0 mm
11:42 9.7 °C 8.1 °C 1002.6 hPa SW 4.8 km/h 9.7 km/h 90 % 0.0 mm
11:47 9.8 °C 8.2 °C 1002.6 hPa SW 4.8 km/h 9.7 km/h 90 % 0.0 mm
11:52 9.9 °C 8.0 °C 1002.6 hPa South 1.6 km/h 11.3 km/h 88 % 0.0 mm
11:57 10.1 °C 7.9 °C 1002.6 hPa SW 3.2 km/h 11.3 km/h 86 % 0.0 mm
12:02 10.2 °C 7.6 °C 1002.6 hPa WSW 1.6 km/h 11.3 km/h 84 % 0.0 mm
12:07 10.3 °C 7.5 °C 1002.3 hPa WSW 1.6 km/h 8.0 km/h 83 % 0.0 mm
12:12 10.4 °C 7.3 °C 1002.3 hPa SW 4.8 km/h 9.7 km/h 81 % 0.0 mm
12:17 10.7 °C 7.9 °C 1002.3 hPa Calm   9.7 km/h 83 % 0.0 mm
12:22 10.8 °C 7.7 °C 1002.3 hPa WSW 3.2 km/h 9.7 km/h 81 % 0.0 mm
12:27 10.9 °C 7.2 °C 1002.3 hPa SE 6.4 km/h 8.0 km/h 78 % 0.0 mm
12:32 11.0 °C 7.3 °C 1002.3 hPa SW 3.2 km/h 9.7 km/h 78 % 0.0 mm
12:37 11.1 °C 7.8 °C 1002.3 hPa SW 4.8 km/h 9.7 km/h 80 % 0.0 mm
12:42 11.2 °C 7.5 °C 1001.9 hPa SW 4.8 km/h 9.7 km/h 78 % 0.0 mm
12:47 11.1 °C 7.0 °C 1001.9 hPa Calm   9.7 km/h 76 % 0.0 mm
12:52 11.1 °C 7.4 °C 1001.6 hPa West 3.2 km/h 11.3 km/h 78 % 0.0 mm
12:57 11.1 °C 6.6 °C 1001.6 hPa SW 4.8 km/h 11.3 km/h 74 % 0.0 mm
13:02 11.2 °C 6.9 °C 1001.6 hPa SW 6.4 km/h 16.1 km/h 75 % 0.0 mm
13:07 11.2 °C 7.3 °C 1001.6 hPa West 4.8 km/h 16.1 km/h 77 % 0.0 mm
13:12 11.3 °C 7.4 °C 1001.2 hPa SW 1.6 km/h 11.3 km/h 77 % 0.0 mm
13:17 11.3 °C 8.2 °C 1001.2 hPa WSW 4.8 km/h 11.3 km/h 81 % 0.0 mm
13:22 11.3 °C 8.0 °C 1001.2 hPa SW 4.8 km/h 11.3 km/h 80 % 0.0 mm
13:27 11.4 °C 7.9 °C 1001.2 hPa SW 3.2 km/h 8.0 km/h 79 % 0.0 mm
13:32 11.4 °C 7.7 °C 1001.2 hPa SW 6.4 km/h 12.9 km/h 78 % 0.0 mm
13:37 11.4 °C 6.9 °C 1001.2 hPa SW 6.4 km/h 12.9 km/h 74 % 0.0 mm
13:42 11.4 °C 6.7 °C 1001.2 hPa SW 9.7 km/h 12.9 km/h 73 % 0.0 mm
13:47 11.5 °C 7.0 °C 1000.9 hPa WSW 1.6 km/h 12.9 km/h 74 % 0.0 mm
13:52 11.5 °C 6.6 °C 1000.9 hPa SW 9.7 km/h 12.9 km/h 72 % 0.0 mm
13:57 11.6 °C 6.9 °C 1000.9 hPa SW 9.7 km/h 12.9 km/h 73 % 0.0 mm
14:02 11.6 °C 6.7 °C 1000.6 hPa SW 1.6 km/h 16.1 km/h 72 % 0.0 mm
14:12 11.6 °C 7.1 °C 1000.6 hPa SW 4.8 km/h 16.1 km/h 74 % 0.0 mm
14:17 11.6 °C 7.3 °C 1000.6 hPa WSW 9.7 km/h 11.3 km/h 75 % 0.0 mm
14:22 11.6 °C 7.3 °C 1000.6 hPa WSW 8.0 km/h 12.9 km/h 75 % 0.0 mm
14:27 11.5 °C 7.2 °C 1000.6 hPa SW 6.4 km/h 12.9 km/h 75 % 0.0 mm
14:32 11.3 °C 7.2 °C 1000.6 hPa WSW 4.8 km/h 12.9 km/h 76 % 0.0 mm
14:37 11.1 °C 7.0 °C 1000.9 hPa WSW 4.8 km/h 12.9 km/h 76 % 0.0 mm
14:42 10.9 °C 7.0 °C 1000.6 hPa WSW 8.0 km/h 17.7 km/h 77 % 0.0 mm
14:47 10.9 °C 7.2 °C 1000.6 hPa SW 4.8 km/h 17.7 km/h 78 % 0.0 mm
14:52 10.9 °C 7.4 °C 1000.9 hPa SSW 4.8 km/h 17.7 km/h 79 % 0.0 mm
14:57 11.2 °C 7.9 °C 1000.6 hPa WSW 3.2 km/h 11.3 km/h 80 % 0.0 mm
15:02 11.4 °C 7.7 °C 1000.6 hPa SSE 3.2 km/h 11.3 km/h 78 % 0.0 mm
15:07 11.3 °C 7.8 °C 1000.6 hPa Calm   8.0 km/h 79 % 0.0 mm
15:12 11.4 °C 8.1 °C 1000.6 hPa WSW 3.2 km/h 8.0 km/h 80 % 0.0 mm
15:17 11.5 °C 8.0 °C 1000.6 hPa SW 3.2 km/h 8.0 km/h 79 % 0.0 mm
15:22 11.3 °C 7.8 °C 1000.6 hPa SW 1.6 km/h 8.0 km/h 79 % 0.0 mm
15:27 11.1 °C 7.6 °C 1000.6 hPa SW 4.8 km/h 8.0 km/h 79 % 0.0 mm
15:32 10.8 °C 7.5 °C 1000.6 hPa SW 3.2 km/h 11.3 km/h 80 % 0.0 mm
15:37 10.6 °C 7.7 °C 1000.6 hPa WSW 1.6 km/h 11.3 km/h 82 % 0.0 mm
15:42 10.3 °C 7.5 °C 1000.2 hPa Calm   8.0 km/h 83 % 0.0 mm
15:47 10.2 °C 7.4 °C 1000.2 hPa Calm   6.4 km/h 83 % 0.0 mm
15:52 10.1 °C 7.5 °C 1000.2 hPa Calm   4.8 km/h 84 % 0.0 mm
15:57 10.0 °C 7.4 °C 1000.2 hPa Calm   3.2 km/h 84 % 0.0 mm
16:02 10.0 °C 7.6 °C 1000.2 hPa Calm   3.2 km/h 85 % 0.0 mm
16:07 10.0 °C 7.6 °C 1000.2 hPa Calm   1.6 km/h 85 % 0.0 mm
16:17 9.9 °C 7.7 °C 1000.2 hPa Calm   3.2 km/h 86 % 0.0 mm
16:22 9.9 °C 7.7 °C 1000.2 hPa Calm   3.2 km/h 86 % 0.0 mm
16:27 10.0 °C 7.8 °C 1000.2 hPa Calm   3.2 km/h 86 % 0.0 mm
16:32 10.0 °C 7.8 °C 1000.2 hPa Calm   1.6 km/h 86 % 0.0 mm
16:37 10.1 °C 7.9 °C 1000.2 hPa Calm   1.6 km/h 86 % 0.0 mm
16:42 10.1 °C 7.9 °C 999.9 hPa Calm   4.8 km/h 86 % 0.0 mm
16:47 9.9 °C 7.7 °C 999.9 hPa West 3.2 km/h 4.8 km/h 86 % 0.0 mm
16:52 9.9 °C 7.7 °C 999.5 hPa SW 3.2 km/h 8.0 km/h 86 % 0.0 mm
17:02 9.7 °C 7.3 °C 999.5 hPa Calm   8.0 km/h 85 % 0.0 mm
17:07 9.4 °C 7.2 °C 999.5 hPa Calm   6.4 km/h 86 % 0.0 mm
17:12 9.2 °C 7.0 °C 999.5 hPa Calm   6.4 km/h 86 % 0.0 mm
17:17 9.0 °C 7.0 °C 999.5 hPa SW 1.6 km/h 3.2 km/h 87 % 0.0 mm
17:22 8.7 °C 6.7 °C 999.5 hPa Calm   3.2 km/h 87 % 0.0 mm
17:27 8.4 °C 6.5 °C 999.5 hPa Calm   3.2 km/h 88 % 0.0 mm
17:32 8.1 °C 6.4 °C 999.5 hPa Calm   1.6 km/h 89 % 0.0 mm
17:37 7.9 °C 6.4 °C 999.5 hPa Calm     90 % 0.0 mm
17:42 7.9 °C 6.5 °C 999.5 hPa Calm   1.6 km/h 91 % 0.0 mm
17:47 7.9 °C 6.5 °C 999.2 hPa Calm   1.6 km/h 91 % 0.0 mm
17:57 7.7 °C 6.2 °C 999.2 hPa Calm     90 % 0.0 mm
18:02 7.6 °C 6.1 °C 999.2 hPa Calm     90 % 0.0 mm
18:07 7.4 °C 6.0 °C 999.2 hPa Calm     91 % 0.0 mm
18:12 7.4 °C 6.0 °C 999.2 hPa Calm     91 % 0.0 mm
18:17 7.3 °C 5.9 °C 999.2 hPa Calm   1.6 km/h 91 % 0.0 mm
18:22 7.2 °C 6.0 °C 999.2 hPa Calm   1.6 km/h 92 % 0.0 mm
18:27 7.1 °C 5.9 °C 999.2 hPa Calm   3.2 km/h 92 % 0.0 mm
18:32 7.1 °C 5.9 °C 998.9 hPa Calm   3.2 km/h 92 % 0.0 mm
18:42 7.2 °C 6.3 °C 998.9 hPa Calm   1.6 km/h 94 % 0.0 mm
18:47 7.4 °C 6.3 °C 998.9 hPa Calm   1.6 km/h 93 % 0.0 mm
18:52 7.4 °C 6.3 °C 998.9 hPa Calm   1.6 km/h 93 % 0.0 mm
18:57 7.3 °C 6.2 °C 998.5 hPa Calm   1.6 km/h 93 % 0.0 mm
19:02 7.2 °C 6.1 °C 998.5 hPa Calm   1.6 km/h 93 % 0.0 mm
19:07 7.2 °C 6.1 °C 998.5 hPa Calm   1.6 km/h 93 % 0.0 mm
19:12 7.3 °C 6.4 °C 998.5 hPa Calm   1.6 km/h 94 % 0.0 mm
19:17 7.4 °C 6.5 °C 998.5 hPa Calm   1.6 km/h 94 % 0.0 mm
19:22 7.6 °C 6.7 °C 998.5 hPa Calm   1.6 km/h 94 % 0.0 mm
19:27 7.8 °C 6.9 °C 998.5 hPa Calm   1.6 km/h 94 % 0.0 mm
19:32 7.8 °C 6.7 °C 998.5 hPa Calm   1.6 km/h 93 % 0.0 mm
19:37 7.9 °C 6.8 °C 998.5 hPa Calm   1.6 km/h 93 % 0.0 mm
19:42 7.9 °C 6.8 °C 998.2 hPa Calm     93 % 0.0 mm
19:47 7.9 °C 6.8 °C 998.2 hPa Calm   1.6 km/h 93 % 0.0 mm
19:52 8.0 °C 6.9 °C 997.9 hPa Calm   1.6 km/h 93 % 0.0 mm
19:57 7.9 °C 6.7 °C 998.2 hPa Calm   1.6 km/h 92 % 0.0 mm
20:02 7.8 °C 6.6 °C 998.2 hPa Calm   1.6 km/h 92 % 0.0 mm
20:07 7.7 °C 6.6 °C 998.2 hPa Calm   1.6 km/h 93 % 0.0 mm
20:12 7.7 °C 6.6 °C 998.5 hPa Calm   1.6 km/h 93 % 0.0 mm
20:17 7.6 °C 6.4 °C 998.2 hPa Calm   1.6 km/h 92 % 0.0 mm
20:22 7.4 °C 6.2 °C 998.2 hPa Calm   1.6 km/h 92 % 0.0 mm
20:27 7.2 °C 6.1 °C 997.9 hPa Calm   1.6 km/h 93 % 0.0 mm
20:32 7.2 °C 6.1 °C 997.9 hPa Calm     93 % 0.0 mm
20:37 7.1 °C 6.0 °C 997.5 hPa Calm     93 % 0.0 mm
20:42 6.9 °C 5.8 °C 997.9 hPa Calm     93 % 0.0 mm
20:47 6.7 °C 5.6 °C 997.9 hPa Calm     93 % 0.0 mm
20:52 6.7 °C 5.8 °C 997.9 hPa Calm     94 % 0.0 mm
20:57 6.7 °C 5.8 °C 997.9 hPa Calm     94 % 0.0 mm
21:02 6.8 °C 6.1 °C 997.5 hPa Calm     95 % 0.0 mm
21:07 6.9 °C 6.0 °C 997.9 hPa Calm     94 % 0.0 mm
21:12 6.8 °C 5.9 °C 997.5 hPa Calm     94 % 0.0 mm
21:17 6.8 °C 5.9 °C 997.9 hPa Calm     94 % 0.0 mm
21:22 6.8 °C 6.1 °C 997.9 hPa Calm     95 % 0.0 mm
21:27 6.8 °C 6.1 °C 997.9 hPa Calm     95 % 0.0 mm
21:32 7.1 °C 6.4 °C 997.9 hPa Calm   3.2 km/h 95 % 0.0 mm
21:37 7.2 °C 6.5 °C 997.9 hPa Calm   3.2 km/h 95 % 0.0 mm
21:42 7.3 °C 6.6 °C 997.9 hPa Calm   3.2 km/h 95 % 0.0 mm
21:47 7.3 °C 6.6 °C 997.9 hPa Calm   1.6 km/h 95 % 0.0 mm
21:52 7.5 °C 6.8 °C 997.9 hPa Calm   3.2 km/h 95 % 0.0 mm
21:57 7.6 °C 6.7 °C 997.9 hPa Calm   3.2 km/h 94 % 0.0 mm
22:02 7.7 °C 6.8 °C 997.9 hPa SSW 1.6 km/h 4.8 km/h 94 % 0.0 mm
22:07 7.9 °C 7.0 °C 997.5 hPa WSW 1.6 km/h 4.8 km/h 94 % 0.0 mm
22:12 8.1 °C 7.0 °C 997.5 hPa SW 4.8 km/h 4.8 km/h 93 % 0.0 mm
22:17 8.2 °C 7.1 °C 997.5 hPa WSW 1.6 km/h 6.4 km/h 93 % 0.0 mm
22:22 8.3 °C 7.1 °C 997.5 hPa West 1.6 km/h 6.4 km/h 92 % 0.0 mm
22:27 8.4 °C 7.2 °C 997.5 hPa WSW 1.6 km/h 6.4 km/h 92 % 0.0 mm
22:32 8.4 °C 7.2 °C 997.5 hPa WSW 3.2 km/h 9.7 km/h 92 % 0.0 mm
22:37 8.4 °C 7.2 °C 997.2 hPa SW 3.2 km/h 9.7 km/h 92 % 0.0 mm
22:42 8.4 °C 7.0 °C 997.2 hPa SSW 4.8 km/h 6.4 km/h 91 % 0.0 mm
22:47 8.6 °C 7.2 °C 997.2 hPa WSW 4.8 km/h 8.0 km/h 91 % 0.0 mm
22:52 8.6 °C 7.2 °C 997.2 hPa SE 3.2 km/h 9.7 km/h 91 % 0.0 mm
22:57 8.7 °C 7.3 °C 997.2 hPa WSW 6.4 km/h 9.7 km/h 91 % 0.0 mm
23:02 8.8 °C 7.2 °C 996.8 hPa South 3.2 km/h 8.0 km/h 90 % 0.0 mm
23:07 8.9 °C 7.3 °C 996.8 hPa SSW 4.8 km/h 8.0 km/h 90 % 0.0 mm
23:12 8.9 °C 7.3 °C 996.8 hPa SW 6.4 km/h 8.0 km/h 90 % 0.0 mm
23:17 9.1 °C 7.4 °C 996.8 hPa Calm   9.7 km/h 89 % 0.0 mm
23:22 9.1 °C 7.4 °C 996.8 hPa WSW 4.8 km/h 9.7 km/h 89 % 0.0 mm
23:27 9.2 °C 7.6 °C 997.5 hPa WSW 14.5 km/h 14.5 km/h 90 % 0.0 mm
23:32 9.3 °C 7.6 °C 998.2 hPa WSW 11.3 km/h 32.2 km/h 89 % 0.3 mm
23:37 8.8 °C 6.9 °C 998.2 hPa SW 8.0 km/h 32.2 km/h 88 % 0.5 mm
23:42 8.4 °C 6.7 °C 998.2 hPa SW 8.0 km/h 32.2 km/h 89 % 1.0 mm
23:47 8.2 °C 6.5 °C 997.9 hPa SSW 8.0 km/h 25.7 km/h 89 % 1.5 mm
23:52 8.0 °C 6.3 °C 998.2 hPa SW 6.4 km/h 19.3 km/h 89 % 1.5 mm
23:57 7.9 °C 6.2 °C 998.2 hPa SW 4.8 km/h 20.9 km/h 89 % 1.5 mm
Meteo18
Compliments of Weather Underground - 4 mb

Script developed by  Jim McMurry - jmcmurry@mwt.net Adapted for the template by  Wim van der Kuil - Leuven-Template.eu

You find our weather info also at:

European Weather Network

Weather Underground

Equipment we use:

Weather-station
Davis Vue

Weather-program
Meteohub

Weather-server
Raspberry PI 2 B+

Provider
1 and 1

Davis Vue

Meteohub

Raspberry PI 2 B+

1 and 1